sensor_id;sensor_type;location;lat;lon;timestamp;pressure;altitude;pressure_sealevel;temperature;humidity
20455;BME280;10386;54.314;10.022;2023-04-21T00:02:23;102462.81;;;8.50;100.00
20455;BME280;10386;54.314;10.022;2023-04-21T00:04:50;102468.16;;;8.53;100.00
20455;BME280;10386;54.314;10.022;2023-04-21T00:07:18;102463.84;;;8.47;100.00
20455;BME280;10386;54.314;10.022;2023-04-21T00:09:45;102461.63;;;8.58;100.00
20455;BME280;10386;54.314;10.022;2023-04-21T00:12:12;102459.13;;;8.52;100.00
20455;BME280;10386;54.314;10.022;2023-04-21T00:14:39;102452.28;;;8.42;100.00
20455;BME280;10386;54.314;10.022;2023-04-21T00:17:06;102463.50;;;8.56;100.00
20455;BME280;10386;54.314;10.022;2023-04-21T00:19:32;102454.78;;;8.48;100.00
20455;BME280;10386;54.314;10.022;2023-04-21T00:22:02;102453.88;;;8.48;100.00
20455;BME280;10386;54.314;10.022;2023-04-21T00:24:29;102457.84;;;8.62;100.00
20455;BME280;10386;54.314;10.022;2023-04-21T00:26:56;102453.13;;;8.44;100.00
20455;BME280;10386;54.314;10.022;2023-04-21T00:29:23;102456.69;;;8.45;100.00
20455;BME280;10386;54.314;10.022;2023-04-21T00:31:49;102459.22;;;8.51;100.00
20455;BME280;10386;54.314;10.022;2023-04-21T00:34:16;102458.47;;;8.46;100.00
20455;BME280;10386;54.314;10.022;2023-04-21T00:36:43;102453.34;;;8.63;100.00
20455;BME280;10386;54.314;10.022;2023-04-21T00:39:10;102442.78;;;8.55;100.00
20455;BME280;10386;54.314;10.022;2023-04-21T00:41:37;102454.09;;;8.66;100.00
20455;BME280;10386;54.314;10.022;2023-04-21T00:44:08;102440.97;;;8.56;100.00
20455;BME280;10386;54.314;10.022;2023-04-21T00:46:36;102445.44;;;8.57;100.00
20455;BME280;10386;54.314;10.022;2023-04-21T00:49:05;102443.03;;;8.72;100.00
20455;BME280;10386;54.314;10.022;2023-04-21T00:51:34;102435.31;;;8.62;100.00
20455;BME280;10386;54.314;10.022;2023-04-21T00:54:03;102437.31;;;8.57;100.00
20455;BME280;10386;54.314;10.022;2023-04-21T00:56:33;102438.84;;;8.64;100.00
20455;BME280;10386;54.314;10.022;2023-04-21T00:59:00;102440.06;;;8.55;100.00
20455;BME280;10386;54.314;10.022;2023-04-21T01:01:29;102436.75;;;8.72;100.00
20455;BME280;10386;54.314;10.022;2023-04-21T01:03:57;102432.53;;;8.63;100.00
20455;BME280;10386;54.314;10.022;2023-04-21T01:06:31;102431.69;;;8.63;100.00
20455;BME280;10386;54.314;10.022;2023-04-21T01:09:00;102434.31;;;8.64;100.00
20455;BME280;10386;54.314;10.022;2023-04-21T01:11:27;102422.22;;;8.50;100.00
20455;BME280;10386;54.314;10.022;2023-04-21T01:13:54;102433.78;;;8.55;100.00
20455;BME280;10386;54.314;10.022;2023-04-21T01:16:22;102426.72;;;8.51;100.00
20455;BME280;10386;54.314;10.022;2023-04-21T01:18:50;102430.03;;;8.59;100.00
20455;BME280;10386;54.314;10.022;2023-04-21T01:21:21;102439.91;;;8.60;100.00
20455;BME280;10386;54.314;10.022;2023-04-21T01:23:47;102435.75;;;8.50;100.00
20455;BME280;10386;54.314;10.022;2023-04-21T01:26:18;102421.75;;;8.39;100.00
20455;BME280;10386;54.314;10.022;2023-04-21T01:28:46;102436.66;;;8.50;100.00
20455;BME280;10386;54.314;10.022;2023-04-21T01:31:15;102425.38;;;8.38;100.00
20455;BME280;10386;54.314;10.022;2023-04-21T01:33:43;102426.44;;;8.34;100.00
20455;BME280;10386;54.314;10.022;2023-04-21T01:36:10;102428.91;;;8.40;100.00
20455;BME280;10386;54.314;10.022;2023-04-21T01:38:38;102422.53;;;8.42;100.00
20455;BME280;10386;54.314;10.022;2023-04-21T01:41:05;102419.16;;;8.36;100.00
20455;BME280;10386;54.314;10.022;2023-04-21T01:43:32;102420.69;;;8.43;100.00
20455;BME280;10386;54.314;10.022;2023-04-21T01:45:59;102421.50;;;8.45;100.00
20455;BME280;10386;54.314;10.022;2023-04-21T01:48:26;102414.19;;;8.24;100.00
20455;BME280;10386;54.314;10.022;2023-04-21T01:50:53;102419.59;;;8.24;100.00
20455;BME280;10386;54.314;10.022;2023-04-21T01:53:20;102408.63;;;8.28;100.00
20455;BME280;10386;54.314;10.022;2023-04-21T01:55:47;102413.03;;;8.31;100.00
20455;BME280;10386;54.314;10.022;2023-04-21T01:58:13;102413.25;;;8.25;100.00
20455;BME280;10386;54.314;10.022;2023-04-21T02:00:40;102414.78;;;8.32;100.00
20455;BME280;10386;54.314;10.022;2023-04-21T02:03:07;102415.09;;;8.24;100.00
20455;BME280;10386;54.314;10.022;2023-04-21T02:05:34;102418.44;;;8.31;100.00
20455;BME280;10386;54.314;10.022;2023-04-21T02:08:00;102420.28;;;8.30;100.00
20455;BME280;10386;54.314;10.022;2023-04-21T02:10:27;102414.31;;;8.21;100.00
20455;BME280;10386;54.314;10.022;2023-04-21T02:12:54;102415.81;;;8.29;100.00
20455;BME280;10386;54.314;10.022;2023-04-21T02:15:20;102412.28;;;8.27;100.00
20455;BME280;10386;54.314;10.022;2023-04-21T02:17:47;102399.81;;;8.23;100.00
20455;BME280;10386;54.314;10.022;2023-04-21T02:20:14;102401.78;;;8.19;100.00
20455;BME280;10386;54.314;10.022;2023-04-21T02:22:41;102406.03;;;8.25;100.00
20455;BME280;10386;54.314;10.022;2023-04-21T02:25:08;102395.63;;;8.14;100.00
20455;BME280;10386;54.314;10.022;2023-04-21T02:27:35;102396.69;;;8.10;100.00
20455;BME280;10386;54.314;10.022;2023-04-21T02:30:06;102399.38;;;8.10;100.00
20455;BME280;10386;54.314;10.022;2023-04-21T02:32:32;102396.50;;;8.14;100.00
20455;BME280;10386;54.314;10.022;2023-04-21T02:34:59;102394.44;;;8.22;100.00
20455;BME280;10386;54.314;10.022;2023-04-21T02:37:27;102399.91;;;8.21;100.00
20455;BME280;10386;54.314;10.022;2023-04-21T02:39:54;102391.31;;;8.08;100.00
20455;BME280;10386;54.314;10.022;2023-04-21T02:42:21;102395.53;;;8.17;100.00
20455;BME280;10386;54.314;10.022;2023-04-21T02:44:48;102400.78;;;8.21;100.00
20455;BME280;10386;54.314;10.022;2023-04-21T02:47:15;102394.63;;;8.18;100.00
20455;BME280;10386;54.314;10.022;2023-04-21T02:49:42;102391.38;;;8.31;100.00
20455;BME280;10386;54.314;10.022;2023-04-21T02:52:09;102386.16;;;8.26;100.00
20455;BME280;10386;54.314;10.022;2023-04-21T02:54:36;102386.44;;;8.19;100.00
20455;BME280;10386;54.314;10.022;2023-04-21T02:57:14;102387.53;;;8.14;100.00
20455;BME280;10386;54.314;10.022;2023-04-21T02:59:40;102379.41;;;8.14;100.00
20455;BME280;10386;54.314;10.022;2023-04-21T03:02:07;102375.69;;;8.16;100.00
20455;BME280;10386;54.314;10.022;2023-04-21T03:04:34;102370.78;;;8.27;100.00
20455;BME280;10386;54.314;10.022;2023-04-21T03:07:01;102383.72;;;8.19;100.00
20455;BME280;10386;54.314;10.022;2023-04-21T03:09:28;102369.31;;;8.19;100.00
20455;BME280;10386;54.314;10.022;2023-04-21T03:11:55;102371.59;;;8.05;100.00
20455;BME280;10386;54.314;10.022;2023-04-21T03:14:21;102375.44;;;8.23;100.00
20455;BME280;10386;54.314;10.022;2023-04-21T03:16:48;102381.09;;;8.18;100.00
20455;BME280;10386;54.314;10.022;2023-04-21T03:19:15;102369.03;;;8.26;100.00
20455;BME280;10386;54.314;10.022;2023-04-21T03:21:46;102365.34;;;8.28;100.00
20455;BME280;10386;54.314;10.022;2023-04-21T03:24:13;102369.38;;;8.17;100.00
20455;BME280;10386;54.314;10.022;2023-04-21T03:26:40;102366.31;;;8.26;100.00
20455;BME280;10386;54.314;10.022;2023-04-21T03:29:06;102363.97;;;8.17;100.00
20455;BME280;10386;54.314;10.022;2023-04-21T03:31:33;102361.91;;;8.23;100.00
20455;BME280;10386;54.314;10.022;2023-04-21T03:34:00;102355.63;;;8.23;100.00
20455;BME280;10386;54.314;10.022;2023-04-21T03:36:27;102363.38;;;8.32;100.00
20455;BME280;10386;54.314;10.022;2023-04-21T03:38:53;102347.84;;;8.37;100.00
20455;BME280;10386;54.314;10.022;2023-04-21T03:41:24;102355.63;;;8.23;100.00
20455;BME280;10386;54.314;10.022;2023-04-21T03:43:51;102358.16;;;8.27;100.00
20455;BME280;10386;54.314;10.022;2023-04-21T03:46:19;102352.75;;;8.27;100.00
20455;BME280;10386;54.314;10.022;2023-04-21T03:48:47;102350.16;;;8.24;100.00
20455;BME280;10386;54.314;10.022;2023-04-21T03:51:14;102354.16;;;8.13;100.00
20455;BME280;10386;54.314;10.022;2023-04-21T03:53:43;102356.75;;;8.18;100.00
20455;BME280;10386;54.314;10.022;2023-04-21T03:56:10;102359.00;;;8.04;100.00
20455;BME280;10386;54.314;10.022;2023-04-21T03:58:36;102353.84;;;8.22;100.00
20455;BME280;10386;54.314;10.022;2023-04-21T04:01:04;102351.78;;;8.04;100.00
20455;BME280;10386;54.314;10.022;2023-04-21T04:03:33;102356.13;;;8.10;100.00
20455;BME280;10386;54.314;10.022;2023-04-21T04:06:00;102352.50;;;8.09;100.00
20455;BME280;10386;54.314;10.022;2023-04-21T04:08:29;102353.34;;;8.11;100.00
20455;BME280;10386;54.314;10.022;2023-04-21T04:10:57;102356.63;;;8.21;100.00
20455;BME280;10386;54.314;10.022;2023-04-21T04:13:23;102349.91;;;8.06;100.00
20455;BME280;10386;54.314;10.022;2023-04-21T04:15:52;102363.22;;;8.12;100.00
20455;BME280;10386;54.314;10.022;2023-04-21T04:18:19;102363.97;;;8.17;100.00
20455;BME280;10386;54.314;10.022;2023-04-21T04:20:46;102350.44;;;8.17;100.00
20455;BME280;10386;54.314;10.022;2023-04-21T04:23:13;102352.34;;;8.14;100.00
20455;BME280;10386;54.314;10.022;2023-04-21T04:25:39;102360.91;;;8.26;100.00
20455;BME280;10386;54.314;10.022;2023-04-21T04:28:06;102341.34;;;8.20;100.00
20455;BME280;10386;54.314;10.022;2023-04-21T04:30:33;102339.22;;;8.27;100.00
20455;BME280;10386;54.314;10.022;2023-04-21T04:33:01;102350.44;;;8.40;100.00
20455;BME280;10386;54.314;10.022;2023-04-21T04:35:28;102338.31;;;8.27;100.00
20455;BME280;10386;54.314;10.022;2023-04-21T04:37:54;102347.72;;;8.40;100.00
20455;BME280;10386;54.314;10.022;2023-04-21T04:40:22;102342.31;;;8.17;100.00
20455;BME280;10386;54.314;10.022;2023-04-21T04:42:49;102346.50;;;8.25;100.00
20455;BME280;10386;54.314;10.022;2023-04-21T04:45:17;102352.41;;;8.36;100.00
20455;BME280;10386;54.314;10.022;2023-04-21T04:47:50;102347.28;;;8.52;100.00
20455;BME280;10386;54.314;10.022;2023-04-21T04:50:17;102334.75;;;8.49;100.00
20455;BME280;10386;54.314;10.022;2023-04-21T04:52:44;102327.91;;;8.62;100.00
20455;BME280;10386;54.314;10.022;2023-04-21T04:55:12;102334.78;;;8.48;100.00
20455;BME280;10386;54.314;10.022;2023-04-21T04:57:39;102337.88;;;8.62;100.00
20455;BME280;10386;54.314;10.022;2023-04-21T05:00:07;102334.59;;;8.75;100.00
20455;BME280;10386;54.314;10.022;2023-04-21T05:02:37;102330.06;;;8.76;100.00
20455;BME280;10386;54.314;10.022;2023-04-21T05:05:04;102338.13;;;8.77;100.00
20455;BME280;10386;54.314;10.022;2023-04-21T05:07:33;102331.72;;;8.80;100.00
20455;BME280;10386;54.314;10.022;2023-04-21T05:10:00;102337.81;;;8.85;100.00
20455;BME280;10386;54.314;10.022;2023-04-21T05:12:27;102332.16;;;8.91;100.00
20455;BME280;10386;54.314;10.022;2023-04-21T05:14:54;102322.28;;;8.90;100.00
20455;BME280;10386;54.314;10.022;2023-04-21T05:17:21;102317.16;;;9.04;100.00
20455;BME280;10386;54.314;10.022;2023-04-21T05:19:48;102323.91;;;9.15;100.00
20455;BME280;10386;54.314;10.022;2023-04-21T05:22:14;102318.38;;;9.18;100.00
20455;BME280;10386;54.314;10.022;2023-04-21T05:24:41;102319.09;;;9.22;100.00
20455;BME280;10386;54.314;10.022;2023-04-21T05:27:09;102322.06;;;9.16;100.00
20455;BME280;10386;54.314;10.022;2023-04-21T05:29:36;102328.69;;;9.30;100.00
20455;BME280;10386;54.314;10.022;2023-04-21T05:32:03;102318.38;;;9.18;100.00
20455;BME280;10386;54.314;10.022;2023-04-21T05:34:31;102313.56;;;9.25;100.00
20455;BME280;10386;54.314;10.022;2023-04-21T05:36:57;102320.94;;;9.43;100.00
20455;BME280;10386;54.314;10.022;2023-04-21T05:39:26;102319.97;;;9.44;100.00
20455;BME280;10386;54.314;10.022;2023-04-21T05:41:53;102311.19;;;9.58;100.00
20455;BME280;10386;54.314;10.022;2023-04-21T05:44:20;102308.34;;;9.61;100.00
20455;BME280;10386;54.314;10.022;2023-04-21T05:46:47;102302.28;;;9.55;100.00
20455;BME280;10386;54.314;10.022;2023-04-21T05:49:13;102302.78;;;9.64;100.00
20455;BME280;10386;54.314;10.022;2023-04-21T05:51:40;102308.66;;;9.74;100.00
20455;BME280;10386;54.314;10.022;2023-04-21T05:54:07;102301.00;;;9.83;100.00
20455;BME280;10386;54.314;10.022;2023-04-21T05:56:33;102300.19;;;9.81;100.00
20455;BME280;10386;54.314;10.022;2023-04-21T05:59:00;102296.25;;;9.88;100.00
20455;BME280;10386;54.314;10.022;2023-04-21T06:01:27;102303.91;;;9.99;100.00
20455;BME280;10386;54.314;10.022;2023-04-21T06:03:55;102292.69;;;10.08;100.00
20455;BME280;10386;54.314;10.022;2023-04-21T06:06:22;102298.00;;;10.09;100.00
20455;BME280;10386;54.314;10.022;2023-04-21T06:08:51;102289.38;;;10.20;100.00
20455;BME280;10386;54.314;10.022;2023-04-21T06:11:17;102285.66;;;10.22;100.00
20455;BME280;10386;54.314;10.022;2023-04-21T06:13:44;102283.47;;;10.30;100.00
20455;BME280;10386;54.314;10.022;2023-04-21T06:16:11;102269.81;;;10.32;100.00
20455;BME280;10386;54.314;10.022;2023-04-21T06:18:38;102280.31;;;10.39;100.00
20455;BME280;10386;54.314;10.022;2023-04-21T06:21:04;102279.63;;;10.90;100.00
20455;BME280;10386;54.314;10.022;2023-04-21T06:23:31;102270.72;;;12.38;100.00
20455;BME280;10386;54.314;10.022;2023-04-21T06:26:05;102225.94;;;13.49;100.00
20455;BME280;10386;54.314;10.022;2023-04-21T06:28:34;102205.22;;;13.61;100.00
20455;BME280;10386;54.314;10.022;2023-04-21T06:31:02;102198.22;;;13.27;100.00
20455;BME280;10386;54.314;10.022;2023-04-21T06:33:32;102200.47;;;13.92;100.00
20455;BME280;10386;54.314;10.022;2023-04-21T06:35:59;102170.25;;;13.81;100.00
20455;BME280;10386;54.314;10.022;2023-04-21T06:38:26;102199.63;;;14.74;100.00
20455;BME280;10386;54.314;10.022;2023-04-21T06:40:53;102175.34;;;14.15;100.00
20455;BME280;10386;54.314;10.022;2023-04-21T06:43:19;102199.22;;;14.11;100.00
20455;BME280;10386;54.314;10.022;2023-04-21T06:45:46;102204.09;;;14.34;100.00
20455;BME280;10386;54.314;10.022;2023-04-21T06:48:13;102191.06;;;14.66;100.00
20455;BME280;10386;54.314;10.022;2023-04-21T06:50:40;102190.31;;;14.08;100.00
20455;BME280;10386;54.314;10.022;2023-04-21T06:53:09;102216.16;;;13.75;100.00
20455;BME280;10386;54.314;10.022;2023-04-21T06:55:57;102202.81;;;13.70;100.00
20455;BME280;10386;54.314;10.022;2023-04-21T06:58:24;102226.31;;;13.43;100.00
20455;BME280;10386;54.314;10.022;2023-04-21T07:00:53;102231.63;;;13.01;100.00
20455;BME280;10386;54.314;10.022;2023-04-21T07:03:20;102247.53;;;12.47;100.00
20455;BME280;10386;54.314;10.022;2023-04-21T07:05:47;102246.59;;;12.16;100.00
20455;BME280;10386;54.314;10.022;2023-04-21T07:08:13;102273.03;;;12.29;100.00
20455;BME280;10386;54.314;10.022;2023-04-21T07:10:40;102271.09;;;12.48;100.00
20455;BME280;10386;54.314;10.022;2023-04-21T07:13:07;102265.34;;;12.52;100.00
20455;BME280;10386;54.314;10.022;2023-04-21T07:15:35;102260.34;;;12.45;100.00
20455;BME280;10386;54.314;10.022;2023-04-21T07:18:02;102270.75;;;12.54;100.00
20455;BME280;10386;54.314;10.022;2023-04-21T07:20:29;102255.44;;;12.51;100.00
20455;BME280;10386;54.314;10.022;2023-04-21T07:22:56;102260.69;;;12.54;100.00
20455;BME280;10386;54.314;10.022;2023-04-21T07:25:22;102253.31;;;12.56;100.00
20455;BME280;10386;54.314;10.022;2023-04-21T07:27:49;102256.13;;;12.70;100.00
20455;BME280;10386;54.314;10.022;2023-04-21T07:30:16;102258.53;;;12.76;100.00
20455;BME280;10386;54.314;10.022;2023-04-21T07:32:43;102248.16;;;12.98;100.00
20455;BME280;10386;54.314;10.022;2023-04-21T07:35:10;102249.81;;;13.16;100.00
20455;BME280;10386;54.314;10.022;2023-04-21T07:37:37;102243.53;;;13.30;100.00
20455;BME280;10386;54.314;10.022;2023-04-21T07:40:09;102248.81;;;13.62;100.00
20455;BME280;10386;54.314;10.022;2023-04-21T07:42:37;102241.50;;;13.77;100.00
20455;BME280;10386;54.314;10.022;2023-04-21T07:45:04;102229.31;;;13.68;100.00
20455;BME280;10386;54.314;10.022;2023-04-21T07:47:32;102223.69;;;13.85;100.00
20455;BME280;10386;54.314;10.022;2023-04-21T07:49:59;102233.13;;;13.79;100.00
20455;BME280;10386;54.314;10.022;2023-04-21T07:52:26;102228.81;;;13.76;100.00
20455;BME280;10386;54.314;10.022;2023-04-21T07:54:52;102224.47;;;14.01;100.00
20455;BME280;10386;54.314;10.022;2023-04-21T07:57:19;102227.19;;;13.87;100.00
20455;BME280;10386;54.314;10.022;2023-04-21T07:59:46;102219.88;;;13.87;100.00
20455;BME280;10386;54.314;10.022;2023-04-21T08:02:13;102223.69;;;14.13;100.00
20455;BME280;10386;54.314;10.022;2023-04-21T08:04:39;102215.81;;;14.22;100.00
20455;BME280;10386;54.314;10.022;2023-04-21T08:07:06;102208.69;;;14.48;100.00
20455;BME280;10386;54.314;10.022;2023-04-21T08:09:35;102205.22;;;14.58;100.00
20455;BME280;10386;54.314;10.022;2023-04-21T08:12:02;102194.72;;;14.38;100.00
20455;BME280;10386;54.314;10.022;2023-04-21T08:14:29;102212.84;;;14.53;100.00
20455;BME280;10386;54.314;10.022;2023-04-21T08:16:58;102205.13;;;14.60;100.00
20455;BME280;10386;54.314;10.022;2023-04-21T08:19:25;102199.56;;;14.61;100.00
20455;BME280;10386;54.314;10.022;2023-04-21T08:21:51;102188.94;;;14.43;100.00
20455;BME280;10386;54.314;10.022;2023-04-21T08:24:18;102198.91;;;14.44;100.00
20455;BME280;10386;54.314;10.022;2023-04-21T08:26:46;102184.28;;;14.31;100.00
20455;BME280;10386;54.314;10.022;2023-04-21T08:29:12;102204.97;;;14.75;100.00
20455;BME280;10386;54.314;10.022;2023-04-21T08:31:39;102192.63;;;14.82;100.00
20455;BME280;10386;54.314;10.022;2023-04-21T08:34:07;102205.03;;;15.14;100.00
20455;BME280;10386;54.314;10.022;2023-04-21T08:36:33;102189.75;;;14.98;100.00
20455;BME280;10386;54.314;10.022;2023-04-21T08:39:00;102181.34;;;15.01;100.00
20455;BME280;10386;54.314;10.022;2023-04-21T08:41:27;102191.44;;;15.00;100.00
20455;BME280;10386;54.314;10.022;2023-04-21T08:43:54;102186.25;;;14.96;100.00
20455;BME280;10386;54.314;10.022;2023-04-21T08:46:21;102207.78;;;15.40;100.00
20455;BME280;10386;54.314;10.022;2023-04-21T08:48:49;102198.78;;;15.51;100.00
20455;BME280;10386;54.314;10.022;2023-04-21T08:51:21;102190.75;;;15.87;100.00
20455;BME280;10386;54.314;10.022;2023-04-21T08:53:49;102188.06;;;16.10;100.00
20455;BME280;10386;54.314;10.022;2023-04-21T08:56:16;102190.94;;;16.21;100.00
20455;BME280;10386;54.314;10.022;2023-04-21T08:58:43;102181.94;;;16.19;100.00
20455;BME280;10386;54.314;10.022;2023-04-21T09:01:09;102164.00;;;16.03;100.00
20455;BME280;10386;54.314;10.022;2023-04-21T09:03:38;102168.69;;;15.88;100.00
20455;BME280;10386;54.314;10.022;2023-04-21T09:06:07;102190.47;;;16.40;100.00
20455;BME280;10386;54.314;10.022;2023-04-21T09:08:41;102180.50;;;16.39;100.00
20455;BME280;10386;54.314;10.022;2023-04-21T09:11:13;102185.09;;;16.26;100.00
20455;BME280;10386;54.314;10.022;2023-04-21T09:13:41;102176.47;;;16.19;100.00
20455;BME280;10386;54.314;10.022;2023-04-21T09:16:16;102172.06;;;16.04;100.00
20455;BME280;10386;54.314;10.022;2023-04-21T09:18:43;102165.50;;;15.94;100.00
20455;BME280;10386;54.314;10.022;2023-04-21T09:21:15;102195.56;;;15.96;100.00
20455;BME280;10386;54.314;10.022;2023-04-21T09:23:48;102195.88;;;16.16;100.00
20455;BME280;10386;54.314;10.022;2023-04-21T09:26:17;102193.56;;;16.35;100.00
20455;BME280;10386;54.314;10.022;2023-04-21T09:28:45;102170.88;;;16.08;100.00
20455;BME280;10386;54.314;10.022;2023-04-21T09:33:46;102177.38;;;15.95;100.00
20455;BME280;10386;54.314;10.022;2023-04-21T09:36:27;102202.44;;;16.26;100.00
20455;BME280;10386;54.314;10.022;2023-04-21T09:38:59;102197.94;;;16.25;100.00
20455;BME280;10386;54.314;10.022;2023-04-21T09:41:30;102203.19;;;16.28;100.00
20455;BME280;10386;54.314;10.022;2023-04-21T09:43:58;102201.22;;;16.43;100.00
20455;BME280;10386;54.314;10.022;2023-04-21T09:46:34;102189.50;;;16.28;100.00
20455;BME280;10386;54.314;10.022;2023-04-21T09:49:02;102189.63;;;16.39;100.00
20455;BME280;10386;54.314;10.022;2023-04-21T09:51:30;102188.59;;;16.28;100.00
20455;BME280;10386;54.314;10.022;2023-04-21T09:54:19;102183.94;;;16.17;100.00
20455;BME280;10386;54.314;10.022;2023-04-21T09:56:58;102176.47;;;16.19;100.00
20455;BME280;10386;54.314;10.022;2023-04-21T09:59:29;102172.50;;;16.23;100.00
20455;BME280;10386;54.314;10.022;2023-04-21T10:01:57;102168.78;;;15.99;100.00
20455;BME280;10386;54.314;10.022;2023-04-21T10:04:27;102183.25;;;16.14;100.00
20455;BME280;10386;54.314;10.022;2023-04-21T10:07:02;102176.88;;;16.13;100.00
20455;BME280;10386;54.314;10.022;2023-04-21T10:09:48;102185.53;;;16.45;100.00
20455;BME280;10386;54.314;10.022;2023-04-21T10:12:17;102182.75;;;16.57;100.00
20455;BME280;10386;54.314;10.022;2023-04-21T10:14:49;102173.13;;;16.75;100.00
20455;BME280;10386;54.314;10.022;2023-04-21T10:17:16;102172.69;;;17.04;100.00
20455;BME280;10386;54.314;10.022;2023-04-21T10:19:55;102157.34;;;17.02;100.00
20455;BME280;10386;54.314;10.022;2023-04-21T10:22:26;102155.94;;;17.31;100.00
20455;BME280;10386;54.314;10.022;2023-04-21T10:24:55;102148.78;;;17.17;100.00
20455;BME280;10386;54.314;10.022;2023-04-21T10:27:36;102142.69;;;16.90;100.00
20455;BME280;10386;54.314;10.022;2023-04-21T10:30:22;102151.09;;;16.76;100.00
20455;BME280;10386;54.314;10.022;2023-04-21T10:33:04;102137.88;;;16.58;100.00
20455;BME280;10386;54.314;10.022;2023-04-21T10:35:57;102149.59;;;16.72;100.00
20455;BME280;10386;54.314;10.022;2023-04-21T10:38:37;102166.78;;;16.98;100.00
20455;BME280;10386;54.314;10.022;2023-04-21T10:41:27;102157.56;;;16.99;100.00
20455;BME280;10386;54.314;10.022;2023-04-21T10:44:10;102151.38;;;17.08;100.00
20455;BME280;10386;54.314;10.022;2023-04-21T10:46:48;102142.16;;;17.09;100.00
20455;BME280;10386;54.314;10.022;2023-04-21T10:49:24;102123.88;;;16.97;100.00
20455;BME280;10386;54.314;10.022;2023-04-21T10:54:25;102122.31;;;17.16;100.00
20455;BME280;10386;54.314;10.022;2023-04-21T10:56:55;102130.22;;;17.21;100.00
20455;BME280;10386;54.314;10.022;2023-04-21T10:59:23;102120.56;;;17.15;100.00
20455;BME280;10386;54.314;10.022;2023-04-21T11:01:50;102104.91;;;16.94;100.00
20455;BME280;10386;54.314;10.022;2023-04-21T11:04:20;102127.56;;;17.19;100.00
20455;BME280;10386;54.314;10.022;2023-04-21T11:09:31;102121.59;;;16.91;100.00
20455;BME280;10386;54.314;10.022;2023-04-21T11:12:03;102114.50;;;16.65;100.00
20455;BME280;10386;54.314;10.022;2023-04-21T11:14:30;102128.97;;;17.25;100.00
20455;BME280;10386;54.314;10.022;2023-04-21T11:16:57;102119.06;;;17.35;100.00
20455;BME280;10386;54.314;10.022;2023-04-21T11:19:23;102095.63;;;16.84;100.00
20455;BME280;10386;54.314;10.022;2023-04-21T11:21:54;102115.63;;;16.97;100.00
20455;BME280;10386;54.314;10.022;2023-04-21T11:24:21;102095.59;;;16.73;100.00
20455;BME280;10386;54.314;10.022;2023-04-21T11:26:48;102098.00;;;16.77;100.00
20455;BME280;10386;54.314;10.022;2023-04-21T11:29:15;102120.03;;;16.99;100.00
20455;BME280;10386;54.314;10.022;2023-04-21T11:31:44;102123.00;;;16.96;100.00
20455;BME280;10386;54.314;10.022;2023-04-21T11:34:13;102099.47;;;17.05;100.00
20455;BME280;10386;54.314;10.022;2023-04-21T11:36:43;102097.91;;;16.90;100.00
20455;BME280;10386;54.314;10.022;2023-04-21T11:39:15;102097.47;;;16.72;100.00
20455;BME280;10386;54.314;10.022;2023-04-21T11:41:48;102105.75;;;17.18;100.00
20455;BME280;10386;54.314;10.022;2023-04-21T11:44:35;102079.69;;;17.23;100.00
20455;BME280;10386;54.314;10.022;2023-04-21T11:47:15;102084.63;;;17.53;100.00
20455;BME280;10386;54.314;10.022;2023-04-21T11:49:56;102076.66;;;17.50;100.00
20455;BME280;10386;54.314;10.022;2023-04-21T11:55:01;102077.38;;;17.41;100.00
20455;BME280;10386;54.314;10.022;2023-04-21T11:57:29;102060.09;;;17.28;100.00
20455;BME280;10386;54.314;10.022;2023-04-21T11:59:58;102075.53;;;17.52;100.00
20455;BME280;10386;54.314;10.022;2023-04-21T12:02:34;102066.34;;;17.30;100.00
20455;BME280;10386;54.314;10.022;2023-04-21T12:05:02;102076.16;;;17.67;100.00
20455;BME280;10386;54.314;10.022;2023-04-21T12:07:31;102048.94;;;17.42;100.00
20455;BME280;10386;54.314;10.022;2023-04-21T12:09:58;102060.31;;;17.59;100.00
20455;BME280;10386;54.314;10.022;2023-04-21T12:12:26;102040.66;;;17.31;100.00
20455;BME280;10386;54.314;10.022;2023-04-21T12:14:53;102061.78;;;17.41;100.00
20455;BME280;10386;54.314;10.022;2023-04-21T12:17:20;102062.06;;;17.71;100.00
20455;BME280;10386;54.314;10.022;2023-04-21T12:19:48;102058.94;;;17.87;100.00
20455;BME280;10386;54.314;10.022;2023-04-21T12:22:16;102034.44;;;17.73;100.00
20455;BME280;10386;54.314;10.022;2023-04-21T12:24:48;102038.81;;;17.97;100.00
20455;BME280;10386;54.314;10.022;2023-04-21T12:27:15;102040.41;;;18.10;100.00
20455;BME280;10386;54.314;10.022;2023-04-21T12:29:42;102023.81;;;18.01;100.00
20455;BME280;10386;54.314;10.022;2023-04-21T12:32:09;102012.38;;;17.74;100.00
20455;BME280;10386;54.314;10.022;2023-04-21T12:34:36;102041.44;;;17.99;100.00
20455;BME280;10386;54.314;10.022;2023-04-21T12:37:03;102040.13;;;18.24;100.00
20455;BME280;10386;54.314;10.022;2023-04-21T12:39:30;102017.94;;;18.06;100.00
20455;BME280;10386;54.314;10.022;2023-04-21T12:41:58;102035.44;;;18.05;100.00
20455;BME280;10386;54.314;10.022;2023-04-21T12:44:25;102026.56;;;18.01;100.00
20455;BME280;10386;54.314;10.022;2023-04-21T12:46:52;102014.22;;;17.96;100.00
20455;BME280;10386;54.314;10.022;2023-04-21T12:49:19;102006.84;;;17.85;100.00
20455;BME280;10386;54.314;10.022;2023-04-21T12:51:47;101998.50;;;17.87;100.00
20455;BME280;10386;54.314;10.022;2023-04-21T12:54:14;102003.75;;;17.90;100.00